North Bend, OR

10:15 PM PST on February 26, 2017 (GMT -0800)
North Bend Municipal

Weather History for KOTH - May, 2013

Change the Weather History Date:

Friday, May 17, 2013

  Actual Average Record
Temperature  
Mean Temperature 56 °F 53 °F  
Max Temperature 61 °F 59 °F 75 °F (1956)
Min Temperature 50 °F 47 °F 36 °F (1966)
Degree Days  
Heating Degree Days 9 12  
Month to date heating degree days 137 219  
Since 1 July heating degree days 4117 4405  
Cooling Degree Days 0 0  
Month to date cooling degree days 4 0  
Year to date cooling degree days 4 0  
Growing Degree Days 5 (Base 50)    
Moisture  
Dew Point 50 °F    
Average Humidity 85    
Maximum Humidity 100    
Minimum Humidity 64    
Precipitation  
Precipitation 0.01 in 0.11 in 1.19 in (1957)
Month to date precipitation 0.10 1.93  
Year to date precipitation 12.44 32.71  
Sea Level Pressure  
Sea Level Pressure 30.09 in    
Wind  
Wind Speed 6 mph (SW)    
Max Wind Speed 14 mph    
Max Gust Speed -    
Visibility 10 miles    
Events      
T = Trace of Precipitation, MM = Missing Value Source: NWS Daily Summary

Daily Weather History Graph

Daily Weather History Graph

Search for Another Location

Airport or City:

Trip Planner

Search our weather history database for the weather conditions in past years. The results will help you decide how hot, cold, wet, or windy it might be!

Date:

Astronomy

May. 17, 2013 Rise Set
Actual Time 5:50 AM PDT 8:37 PM PDT
Civil Twilight 5:16 AM PDT 9:10 PM PDT
Nautical Twilight 4:35 AM PDT 9:52 PM PDT
Astronomical Twilight 3:46 AM PDT 10:41 PM PDT
Moon 12:33 PM PDT (5/17) 1:28 AM PDT (5/17)
Length of Visible Light 15h 53m
Length of Day
14h 47m
Waxing Crescent, 46% of the Moon is Illuminated
May 17
Waxing Crescent
May 17
First Quarter
May 24
Full
May 31
Last Quarter
Jun 8
New

Hourly Weather History & Observations

Time (PDT) Temp. Dew Point Humidity Pressure Visibility Wind Dir Wind Speed Gust Speed Precip Events Conditions
12:15 AM 53.6 °F 53.6 °F 100% 30.05 in 10.0 mi SSE 4.6 mph - N/A   Overcast
12:35 AM 53.6 °F 51.8 °F 94% 30.05 in 10.0 mi SSE 3.5 mph - N/A   Overcast
12:55 AM 51.8 °F 50.0 °F 94% 30.05 in 10.0 mi SE 4.6 mph - N/A   Overcast
1:15 AM 51.8 °F 51.8 °F 100% 30.05 in 10.0 mi SSE 4.6 mph - N/A   Overcast
1:35 AM 51.8 °F 51.8 °F 100% 30.05 in 10.0 mi SSE 3.5 mph - N/A   Mostly Cloudy
1:55 AM 51.8 °F 50.0 °F 94% 30.04 in 10.0 mi SSE 3.5 mph - N/A   Overcast
2:15 AM 51.8 °F 51.8 °F 100% 30.04 in 10.0 mi SSE 3.5 mph - N/A   Overcast
2:35 AM 51.8 °F 51.8 °F 100% 30.04 in 10.0 mi SSE 3.5 mph - N/A   Overcast
2:55 AM 51.8 °F 50.0 °F 94% 30.04 in 10.0 mi SE 4.6 mph - N/A   Overcast
3:15 AM 51.8 °F 50.0 °F 94% 30.04 in 10.0 mi SSE 3.5 mph - N/A   Mostly Cloudy
3:35 AM 51.8 °F 50.0 °F 94% 30.04 in 3.0 mi SSE 3.5 mph - N/A   Overcast
3:55 AM 51.8 °F 51.8 °F 100% 30.04 in 10.0 mi SSE 3.5 mph - N/A   Overcast
4:15 AM 51.8 °F 51.8 °F 100% 30.04 in 10.0 mi SSE 4.6 mph - N/A   Mostly Cloudy
4:35 AM 51.8 °F 51.8 °F 100% 30.04 in 10.0 mi SSE 4.6 mph - N/A   Overcast
4:55 AM 51.8 °F 51.8 °F 100% 30.05 in 10.0 mi South 4.6 mph - N/A   Overcast
5:15 AM 51.8 °F 51.8 °F 100% 30.05 in 10.0 mi SSE 4.6 mph - 0.01 in   Overcast
5:35 AM 51.8 °F 51.8 °F 100% 30.04 in 10.0 mi SSE 4.6 mph - 0.01 in   Overcast
5:55 AM 50.0 °F 50.0 °F 100% 30.04 in 10.0 mi SSE 5.8 mph - 0.01 in   Mostly Cloudy
6:15 AM 50.0 °F 50.0 °F 100% 30.04 in 10.0 mi SSE 5.8 mph - N/A   Mostly Cloudy
6:35 AM 50.0 °F 48.2 °F 94% 30.04 in 10.0 mi SSE 5.8 mph - N/A   Mostly Cloudy
6:55 AM 51.8 °F 51.8 °F 100% 30.04 in 10.0 mi SSE 4.6 mph - N/A   Overcast
7:15 AM 51.8 °F 50.0 °F 94% 30.05 in 10.0 mi SSE 4.6 mph - N/A   Overcast
7:35 AM 53.6 °F 51.8 °F 94% 30.05 in 10.0 mi SSE 5.8 mph - N/A   Overcast
7:55 AM 53.6 °F 53.6 °F 100% 30.06 in 10.0 mi SE 4.6 mph - N/A   Overcast
8:15 AM 53.6 °F 53.6 °F 100% 30.06 in 10.0 mi SSE 5.8 mph - N/A   Mostly Cloudy
8:35 AM 53.6 °F 53.6 °F 100% 30.06 in 10.0 mi SSE 3.5 mph - N/A   Mostly Cloudy
8:55 AM 55.4 °F 53.6 °F 94% 30.07 in 10.0 mi SE 3.5 mph - N/A   Overcast
9:15 AM 55.4 °F 51.8 °F 88% 30.07 in 10.0 mi WSW 3.5 mph - N/A   Overcast
9:35 AM 55.4 °F 51.8 °F 88% 30.07 in 10.0 mi SW 5.8 mph - N/A   Overcast
9:55 AM 55.4 °F 51.8 °F 88% 30.07 in 10.0 mi WSW 4.6 mph - N/A   Overcast
10:15 AM 57.2 °F 48.2 °F 72% 30.07 in 10.0 mi West 9.2 mph - N/A   Overcast
10:35 AM 55.4 °F 48.2 °F 77% 30.08 in 10.0 mi West 9.2 mph - N/A   Overcast
10:55 AM 57.2 °F 50.0 °F 77% 30.08 in 10.0 mi WNW 8.1 mph - N/A   Mostly Cloudy
11:15 AM 57.2 °F 51.8 °F 82% 30.08 in 10.0 mi West 8.1 mph - N/A   Partly Cloudy
11:35 AM 59.0 °F 50.0 °F 72% 30.08 in 10.0 mi West 10.4 mph - N/A   Partly Cloudy
12:15 PM 59.0 °F 48.2 °F 67% 30.09 in 10.0 mi West 10.4 mph - N/A   Mostly Cloudy
12:35 PM 60.8 °F 48.2 °F 63% 30.09 in 10.0 mi West 8.1 mph - N/A   Mostly Cloudy
12:55 PM 60.8 °F 48.2 °F 63% 30.09 in 10.0 mi West 10.4 mph - N/A   Mostly Cloudy
1:15 PM 60.8 °F 50.0 °F 68% 30.10 in 10.0 mi WNW 11.5 mph - N/A   Mostly Cloudy
1:35 PM 60.8 °F 50.0 °F 68% 30.10 in 10.0 mi West 11.5 mph - N/A   Mostly Cloudy
1:55 PM 60.8 °F 50.0 °F 68% 30.10 in 10.0 mi West 10.4 mph - N/A   Mostly Cloudy
2:15 PM 60.8 °F 51.8 °F 72% 30.10 in 10.0 mi West 13.8 mph - N/A   Mostly Cloudy
2:35 PM 60.8 °F 50.0 °F 68% 30.11 in 10.0 mi West 12.7 mph - N/A   Mostly Cloudy
2:55 PM 60.8 °F 50.0 °F 68% 30.11 in 10.0 mi West 13.8 mph - N/A   Mostly Cloudy
3:15 PM 60.8 °F 51.8 °F 72% 30.12 in 10.0 mi West 13.8 mph - N/A   Mostly Cloudy
3:35 PM 60.8 °F 50.0 °F 68% 30.12 in 10.0 mi West 11.5 mph - N/A   Mostly Cloudy
3:55 PM 60.8 °F 50.0 °F 68% 30.12 in 10.0 mi West 11.5 mph - N/A   Mostly Cloudy
4:15 PM 59.0 °F 51.8 °F 77% 30.12 in 10.0 mi WNW 10.4 mph - N/A   Scattered Clouds
4:35 PM 59.0 °F 50.0 °F 72% 30.12 in 10.0 mi WNW 9.2 mph - N/A   Partly Cloudy
4:55 PM 59.0 °F 48.2 °F 67% 30.13 in 10.0 mi West 10.4 mph - N/A   Scattered Clouds
5:15 PM 59.0 °F 50.0 °F 72% 30.13 in 10.0 mi West 9.2 mph - N/A   Clear
5:35 PM 59.0 °F 50.0 °F 72% 30.13 in 10.0 mi WNW 9.2 mph - N/A   Partly Cloudy
5:55 PM 59.0 °F 50.0 °F 72% 30.13 in 10.0 mi West 9.2 mph - N/A   Scattered Clouds
6:15 PM 57.2 °F 50.0 °F 77% 30.13 in 10.0 mi West 5.8 mph - N/A   Scattered Clouds
6:35 PM 57.2 °F 50.0 °F 77% 30.12 in 10.0 mi West 6.9 mph - N/A   Partly Cloudy
6:55 PM 57.2 °F 50.0 °F 77% 30.12 in 10.0 mi West 5.8 mph - N/A   Scattered Clouds
7:15 PM 57.2 °F 48.2 °F 72% 30.12 in 10.0 mi WNW 4.6 mph - N/A   Partly Cloudy
7:35 PM 57.2 °F 48.2 °F 72% 30.12 in 10.0 mi Calm Calm - N/A   Clear
7:55 PM 55.4 °F 48.2 °F 77% 30.12 in 10.0 mi WNW 4.6 mph - N/A   Partly Cloudy
8:15 PM 55.4 °F 48.2 °F 77% 30.13 in 10.0 mi WNW 4.6 mph - N/A   Scattered Clouds
8:35 PM 55.4 °F 48.2 °F 77% 30.13 in 10.0 mi West 5.8 mph - N/A   Mostly Cloudy
8:55 PM 55.4 °F 48.2 °F 77% 30.13 in 10.0 mi West 4.6 mph - N/A   Partly Cloudy
9:15 PM 53.6 °F 48.2 °F 82% 30.13 in 10.0 mi West 4.6 mph - N/A   Clear
9:35 PM 53.6 °F 48.2 °F 82% 30.14 in 10.0 mi WSW 3.5 mph - N/A   Clear
9:55 PM 53.6 °F 50.0 °F 88% 30.14 in 10.0 mi WSW 3.5 mph - N/A   Clear
10:15 PM 53.6 °F 48.2 °F 82% 30.14 in 10.0 mi Calm Calm - N/A   Clear
10:35 PM 50.0 °F 48.2 °F 94% 30.15 in 10.0 mi SSE 3.5 mph - N/A   Scattered Clouds
10:55 PM 50.0 °F 48.2 °F 94% 30.15 in 10.0 mi SSE 4.6 mph - N/A   Mostly Cloudy
11:15 PM 50.0 °F 48.2 °F 94% 30.15 in 10.0 mi South 4.6 mph - N/A   Scattered Clouds
11:35 PM 50.0 °F 48.2 °F 94% 30.16 in 10.0 mi South 3.5 mph - N/A   Mostly Cloudy
11:55 PM 50.0 °F 48.2 °F 94% 30.16 in 10.0 mi South 4.6 mph - N/A   Partly Cloudy